createdAt,value
2023-12-11T00:02:01.502Z,2.83
2023-12-11T00:04:33.809Z,3.33
2023-12-11T00:07:05.776Z,3.10
2023-12-11T00:09:42.060Z,4.45
2023-12-11T00:12:13.980Z,2.95
2023-12-11T00:14:45.862Z,3.55
2023-12-11T00:17:17.793Z,3.03
2023-12-11T00:19:49.611Z,2.83
2023-12-11T00:22:21.398Z,3.30
2023-12-11T00:24:53.305Z,3.10
2023-12-11T00:27:25.176Z,2.75
2023-12-11T00:29:56.991Z,3.92
2023-12-11T00:32:31.196Z,2.83
2023-12-11T00:35:03.223Z,3.00
2023-12-11T00:37:35.131Z,3.08
2023-12-11T00:40:09.297Z,3.50
2023-12-11T00:42:41.246Z,4.30
2023-12-11T00:45:16.640Z,3.10
2023-12-11T00:47:48.461Z,2.92
2023-12-11T00:50:20.450Z,3.47
2023-12-11T00:52:55.271Z,3.10
2023-12-11T00:58:01.396Z,3.35
2023-12-11T01:00:33.311Z,3.13
2023-12-11T01:03:05.336Z,2.90
2023-12-11T01:05:37.845Z,3.25
2023-12-11T01:08:09.976Z,2.60
2023-12-11T01:10:41.818Z,2.58
2023-12-11T01:13:13.673Z,2.20
2023-12-11T01:15:46.599Z,2.72
2023-12-11T01:18:18.782Z,2.30
2023-12-11T01:20:52.155Z,2.63
2023-12-11T01:23:23.944Z,2.33
2023-12-11T01:25:55.696Z,2.22
2023-12-11T01:28:27.522Z,2.47
2023-12-11T01:30:59.395Z,2.55
2023-12-11T01:33:31.515Z,2.10
2023-12-11T01:36:03.696Z,2.50
2023-12-11T01:38:35.797Z,2.85
2023-12-11T01:41:07.700Z,2.70
2023-12-11T01:43:39.772Z,2.10
2023-12-11T01:46:15.237Z,2.53
2023-12-11T01:48:50.179Z,2.55
2023-12-11T01:53:53.898Z,2.10
2023-12-11T01:56:26.347Z,2.10
2023-12-11T01:58:58.450Z,1.90
2023-12-11T02:01:31.614Z,2.05
2023-12-11T02:04:03.854Z,1.90
2023-12-11T02:06:36.041Z,2.50
2023-12-11T02:09:07.889Z,1.65
2023-12-11T02:11:39.736Z,1.88
2023-12-11T02:14:11.535Z,1.80
2023-12-11T02:16:43.308Z,1.80
2023-12-11T02:19:15.282Z,2.15
2023-12-11T02:21:47.581Z,2.13
2023-12-11T02:24:24.349Z,1.88
2023-12-11T02:26:56.139Z,1.90
2023-12-11T02:29:27.985Z,1.80
2023-12-11T02:31:59.855Z,2.03
2023-12-11T02:34:31.790Z,1.70
2023-12-11T02:37:03.739Z,1.80
2023-12-11T02:39:35.550Z,1.80
2023-12-11T02:42:07.384Z,1.95
2023-12-11T02:44:39.164Z,2.33
2023-12-11T02:47:11.004Z,1.70
2023-12-11T02:49:42.816Z,1.55
2023-12-11T02:52:14.663Z,1.52
2023-12-11T02:54:46.535Z,1.60
2023-12-11T02:57:18.449Z,1.50
2023-12-11T02:59:50.236Z,1.42
2023-12-11T03:02:22.118Z,1.83
2023-12-11T03:04:53.981Z,1.60
2023-12-11T03:07:26.961Z,1.60
2023-12-11T03:09:58.833Z,1.38
2023-12-11T03:12:30.622Z,1.60
2023-12-11T03:15:04.407Z,1.67
2023-12-11T03:17:39.756Z,1.80
2023-12-11T03:20:13.012Z,2.08
2023-12-11T03:22:45.437Z,2.28
2023-12-11T03:25:17.318Z,1.80
2023-12-11T03:27:49.168Z,1.67
2023-12-11T03:30:21.039Z,2.15
2023-12-11T03:32:52.929Z,1.50
2023-12-11T03:35:25.583Z,1.40
2023-12-11T03:37:57.383Z,1.40
2023-12-11T03:40:29.226Z,1.40
2023-12-11T03:43:01.703Z,1.40
2023-12-11T03:45:33.678Z,2.95
2023-12-11T03:48:05.844Z,1.50
2023-12-11T03:50:37.775Z,1.50
2023-12-11T03:53:11.506Z,1.95
2023-12-11T03:55:43.385Z,1.60
2023-12-11T03:58:15.242Z,1.63
2023-12-11T04:00:47.202Z,1.65
2023-12-11T04:03:19.075Z,1.63
2023-12-11T04:05:50.988Z,1.65
2023-12-11T04:08:22.792Z,1.67
2023-12-11T04:10:54.573Z,1.48
2023-12-11T04:13:26.341Z,1.40
2023-12-11T04:15:58.239Z,1.48
2023-12-11T04:18:30.466Z,1.45
2023-12-11T04:21:02.472Z,1.45
2023-12-11T04:23:34.799Z,1.30
2023-12-11T04:26:06.703Z,1.45
2023-12-11T04:28:38.474Z,1.58
2023-12-11T04:31:13.168Z,1.45
2023-12-11T04:36:16.985Z,1.42
2023-12-11T04:38:48.858Z,1.60
2023-12-11T04:41:20.761Z,1.50
2023-12-11T04:43:52.813Z,1.45
2023-12-11T04:46:24.628Z,1.30
2023-12-11T04:48:57.788Z,1.60
2023-12-11T04:51:29.656Z,1.38
2023-12-11T04:54:01.524Z,1.35
2023-12-11T04:56:33.385Z,1.35
2023-12-11T04:59:05.245Z,2.20
2023-12-11T05:01:37.234Z,1.45
2023-12-11T05:04:09.126Z,1.25
2023-12-11T05:06:41.042Z,1.30
2023-12-11T05:09:12.922Z,1.30
2023-12-11T05:11:45.841Z,1.60
2023-12-11T05:14:17.705Z,2.30
2023-12-11T05:16:49.499Z,1.58
2023-12-11T05:19:21.481Z,1.42
2023-12-11T05:21:56.719Z,1.30
2023-12-11T05:24:28.843Z,1.25
2023-12-11T05:27:00.651Z,1.10
2023-12-11T05:29:32.432Z,1.35
2023-12-11T05:32:04.659Z,1.27
2023-12-11T05:34:36.482Z,1.27
2023-12-11T05:37:11.286Z,1.55
2023-12-11T05:42:29.309Z,1.35
2023-12-11T05:45:03.645Z,1.10
2023-12-11T05:47:35.486Z,1.30
2023-12-11T05:50:07.624Z,1.20
2023-12-11T05:52:39.436Z,1.50
2023-12-11T05:55:11.451Z,1.67
2023-12-11T05:57:44.976Z,1.33
2023-12-11T06:00:17.939Z,1.00
2023-12-11T06:02:49.844Z,1.60
2023-12-11T06:05:22.032Z,1.30
2023-12-11T06:07:53.894Z,1.20
2023-12-11T06:10:25.779Z,1.55
2023-12-11T06:12:57.709Z,1.30
2023-12-11T06:15:30.535Z,1.40
2023-12-11T06:18:02.573Z,2.08
2023-12-11T06:20:34.508Z,1.38
2023-12-11T06:23:09.285Z,1.55
2023-12-11T06:28:12.846Z,2.13
2023-12-11T06:30:44.828Z,1.40
2023-12-11T06:33:17.687Z,1.77
2023-12-11T06:35:52.947Z,1.60
2023-12-11T06:38:24.724Z,1.65
2023-12-11T06:40:56.594Z,1.90
2023-12-11T06:43:28.510Z,2.47
2023-12-11T06:46:00.337Z,2.13
2023-12-11T06:48:32.380Z,1.95
2023-12-11T06:51:04.482Z,2.28
2023-12-11T06:53:36.947Z,2.53
2023-12-11T06:56:09.332Z,1.90
2023-12-11T06:58:41.131Z,1.88
2023-12-11T07:01:17.168Z,2.15
2023-12-11T07:03:50.227Z,1.80
2023-12-11T07:06:27.944Z,1.90
2023-12-11T07:11:33.260Z,1.70
2023-12-11T07:14:05.183Z,2.10
2023-12-11T07:16:37.285Z,2.10
2023-12-11T07:19:09.664Z,2.45
2023-12-11T07:21:47.492Z,1.90
2023-12-11T07:24:19.343Z,2.05
2023-12-11T07:26:53.339Z,2.30
2023-12-11T07:29:25.151Z,1.92
2023-12-11T07:31:56.975Z,1.83
2023-12-11T07:34:29.087Z,1.50
2023-12-11T07:37:01.263Z,2.20
2023-12-11T07:39:33.139Z,2.67
2023-12-11T07:42:05.321Z,1.90
2023-12-11T07:44:37.668Z,2.00
2023-12-11T07:47:09.641Z,2.65
2023-12-11T07:49:47.504Z,1.83
2023-12-11T07:52:19.763Z,2.10
2023-12-11T07:54:51.687Z,2.05
2023-12-11T07:57:26.334Z,1.60
2023-12-11T08:02:39.362Z,1.83
2023-12-11T08:05:11.710Z,2.10
2023-12-11T08:07:46.817Z,2.05
2023-12-11T08:10:19.142Z,1.83
2023-12-11T08:12:55.031Z,2.20
2023-12-11T08:15:29.023Z,2.55
2023-12-11T08:18:00.916Z,2.55
2023-12-11T08:20:32.771Z,2.83
2023-12-11T08:23:04.709Z,2.70
2023-12-11T08:25:37.072Z,2.42
2023-12-11T08:28:11.687Z,2.10
2023-12-11T08:30:43.542Z,2.17
2023-12-11T08:33:15.566Z,1.88
2023-12-11T08:35:48.645Z,2.65
2023-12-11T08:38:26.950Z,2.10
2023-12-11T08:40:58.760Z,1.95
2023-12-11T08:43:31.664Z,2.13
2023-12-11T08:46:04.876Z,2.00
2023-12-11T08:48:39.781Z,1.80
2023-12-11T08:51:12.174Z,2.55
2023-12-11T08:53:45.970Z,1.95
2023-12-11T08:56:20.823Z,1.90
2023-12-11T08:58:52.800Z,1.70
2023-12-11T09:01:24.700Z,1.90
2023-12-11T09:03:56.651Z,1.80
2023-12-11T09:06:28.555Z,1.83
2023-12-11T09:09:00.464Z,1.95
2023-12-11T09:11:33.720Z,1.90
2023-12-11T09:14:05.544Z,1.90
2023-12-11T09:16:37.332Z,2.00
2023-12-11T09:19:09.979Z,2.00
2023-12-11T09:21:42.466Z,2.03
2023-12-11T09:24:17.316Z,1.98
2023-12-11T09:26:49.230Z,2.20
2023-12-11T09:29:21.182Z,2.10
2023-12-11T09:31:52.969Z,2.03
2023-12-11T09:34:24.958Z,2.13
2023-12-11T09:36:57.626Z,1.73
2023-12-11T09:39:29.558Z,2.28
2023-12-11T09:42:02.973Z,1.85
2023-12-11T09:44:36.346Z,2.00
2023-12-11T09:47:19.844Z,2.22
2023-12-11T09:49:55.165Z,1.90
2023-12-11T09:52:32.692Z,2.10
2023-12-11T09:55:06.400Z,1.77
2023-12-11T09:57:40.901Z,1.80
2023-12-11T10:00:17.350Z,2.03
2023-12-11T10:02:54.453Z,2.00
2023-12-11T10:05:30.119Z,1.90
2023-12-11T10:08:02.387Z,2.08
2023-12-11T10:10:39.592Z,2.20
2023-12-11T10:13:23.818Z,1.80
2023-12-11T10:15:56.820Z,2.05
2023-12-11T10:18:28.766Z,2.05
2023-12-11T10:21:01.076Z,2.80
2023-12-11T10:23:34.398Z,2.17
2023-12-11T10:26:07.458Z,2.55
2023-12-11T10:28:39.327Z,2.20
2023-12-11T10:31:11.443Z,2.38
2023-12-11T10:33:52.193Z,2.58
2023-12-11T10:36:24.136Z,1.95
2023-12-11T10:39:09.374Z,2.40
2023-12-11T10:41:47.136Z,2.90
2023-12-11T10:44:39.927Z,1.95
2023-12-11T10:47:19.551Z,3.30
2023-12-11T10:49:51.627Z,3.03
2023-12-11T10:52:23.547Z,1.63
2023-12-11T10:54:57.352Z,2.05
2023-12-11T10:57:33.481Z,2.40
2023-12-11T11:00:06.345Z,2.08
2023-12-11T11:02:38.739Z,2.10
2023-12-11T11:05:13.100Z,2.00
2023-12-11T11:08:03.703Z,2.20
2023-12-11T11:11:06.299Z,1.73
2023-12-11T11:14:05.906Z,2.00
2023-12-11T11:16:54.242Z,1.90
2023-12-11T11:19:28.647Z,2.17
2023-12-11T11:22:05.218Z,1.60
2023-12-11T11:24:40.209Z,1.90
2023-12-11T11:27:42.555Z,2.13
2023-12-11T11:30:44.028Z,1.60
2023-12-11T11:33:16.277Z,1.60
2023-12-11T11:35:55.191Z,1.45
2023-12-11T11:38:58.883Z,1.73
2023-12-11T11:41:31.367Z,1.58
2023-12-11T11:44:08.353Z,1.70
2023-12-11T11:46:53.653Z,1.60
2023-12-11T11:49:35.540Z,1.70
2023-12-11T11:52:11.415Z,2.05
2023-12-11T11:54:46.416Z,1.90
2023-12-11T11:57:26.905Z,2.15
2023-12-11T11:59:58.797Z,2.13
2023-12-11T12:02:30.520Z,2.08
2023-12-11T12:05:12.858Z,1.98
2023-12-11T12:07:47.911Z,1.80
2023-12-11T12:10:20.630Z,2.08
2023-12-11T12:12:59.012Z,2.08
2023-12-11T12:15:31.112Z,2.60
2023-12-11T12:18:08.316Z,2.00
2023-12-11T12:20:43.200Z,2.08
2023-12-11T12:23:17.682Z,2.47
2023-12-11T12:25:54.335Z,2.42
2023-12-11T12:28:42.130Z,2.20
2023-12-11T12:31:14.125Z,2.13
2023-12-11T12:33:47.815Z,2.13
2023-12-11T12:36:20.364Z,2.13
2023-12-11T12:38:52.373Z,2.22
2023-12-11T12:41:24.205Z,2.03
2023-12-11T12:44:00.075Z,2.20
2023-12-11T12:46:40.974Z,1.92
2023-12-11T12:49:15.364Z,2.30
2023-12-11T12:51:54.698Z,2.13
2023-12-11T12:54:26.612Z,1.95
2023-12-11T12:57:00.159Z,1.90
2023-12-11T12:59:34.092Z,1.88
2023-12-11T13:02:15.810Z,1.70
2023-12-11T13:04:54.653Z,1.75
2023-12-11T13:07:28.406Z,1.70
2023-12-11T13:10:15.226Z,1.30
2023-12-11T13:12:49.900Z,1.48
2023-12-11T13:15:21.823Z,1.35
2023-12-11T13:17:54.845Z,1.20
2023-12-11T13:20:26.784Z,1.20
2023-12-11T13:22:58.966Z,1.20
2023-12-11T13:25:30.819Z,1.00
2023-12-11T13:28:03.220Z,1.33
2023-12-11T13:30:35.079Z,1.30
2023-12-11T13:33:06.984Z,1.50
2023-12-11T13:35:38.827Z,1.42
2023-12-11T13:38:10.858Z,1.52
2023-12-11T13:40:43.172Z,1.50
2023-12-11T13:43:15.252Z,2.20
2023-12-11T13:45:47.131Z,1.60
2023-12-11T13:48:22.016Z,1.50
2023-12-11T13:50:55.646Z,1.45
2023-12-11T13:53:28.384Z,1.95
2023-12-11T13:56:01.336Z,1.77
2023-12-11T13:58:33.650Z,2.30
2023-12-11T14:01:06.030Z,2.00
2023-12-11T14:03:37.948Z,2.20
2023-12-11T14:06:09.804Z,2.03
2023-12-11T14:08:46.651Z,2.25
2023-12-11T14:11:18.524Z,2.30
2023-12-11T14:13:50.270Z,2.47
2023-12-11T14:16:22.372Z,2.58
2023-12-11T14:18:54.376Z,2.00
2023-12-11T14:21:26.227Z,1.98
2023-12-11T14:23:58.052Z,2.03
2023-12-11T14:26:33.094Z,2.30
2023-12-11T14:29:06.908Z,2.88
2023-12-11T14:31:38.837Z,2.10
2023-12-11T14:34:11.024Z,2.40
2023-12-11T14:36:43.227Z,2.13
2023-12-11T14:39:17.826Z,2.53
2023-12-11T14:44:21.518Z,2.20
2023-12-11T14:46:53.431Z,1.95
2023-12-11T14:49:25.405Z,2.40
2023-12-11T14:51:58.196Z,2.03
2023-12-11T14:54:30.102Z,2.20
2023-12-11T14:57:01.901Z,2.15
2023-12-11T14:59:36.276Z,2.50
2023-12-11T15:02:08.197Z,2.33
2023-12-11T15:04:40.141Z,2.60
2023-12-11T15:07:14.803Z,2.55
2023-12-11T15:12:20.158Z,3.03
2023-12-11T15:14:52.360Z,3.00
2023-12-11T15:17:24.129Z,3.25
2023-12-11T15:19:57.264Z,2.75
2023-12-11T15:22:29.278Z,2.70
2023-12-11T15:25:01.155Z,2.60
2023-12-11T15:27:33.470Z,2.72
2023-12-11T15:30:09.479Z,2.40
2023-12-11T15:32:48.412Z,2.17
2023-12-11T15:35:20.715Z,1.65
2023-12-11T15:37:52.841Z,1.80
2023-12-11T15:40:27.421Z,1.90
2023-12-11T15:43:03.176Z,1.90
2023-12-11T15:45:35.024Z,1.65
2023-12-11T15:48:10.179Z,2.95
2023-12-11T15:50:55.382Z,1.80
2023-12-11T15:53:30.037Z,1.90
2023-12-11T15:56:01.884Z,1.70
2023-12-11T15:58:33.695Z,1.60
2023-12-11T16:01:08.031Z,1.80
2023-12-11T16:03:40.423Z,1.90
2023-12-11T16:06:12.412Z,2.00
2023-12-11T16:08:44.251Z,2.35
2023-12-11T16:11:16.447Z,2.03
2023-12-11T16:13:48.233Z,1.75
2023-12-11T16:16:22.717Z,1.83
2023-12-11T16:18:55.018Z,1.80
2023-12-11T16:21:27.560Z,1.50
2023-12-11T16:24:01.020Z,1.90
2023-12-11T16:26:32.858Z,1.70
2023-12-11T16:29:07.479Z,2.80
2023-12-11T16:34:11.933Z,1.65
2023-12-11T16:36:49.532Z,1.77
2023-12-11T16:39:21.593Z,2.53
2023-12-11T16:41:53.448Z,1.77
2023-12-11T16:44:25.305Z,2.70
2023-12-11T16:46:57.083Z,1.98
2023-12-11T16:49:28.990Z,1.90
2023-12-11T16:52:03.017Z,1.50
2023-12-11T16:54:34.776Z,1.30
2023-12-11T16:57:06.881Z,1.58
2023-12-11T16:59:39.921Z,1.63
2023-12-11T17:02:11.955Z,2.00
2023-12-11T17:04:50.798Z,1.70
2023-12-11T17:07:25.723Z,1.67
2023-12-11T17:10:04.347Z,1.45
2023-12-11T17:12:36.476Z,1.95
2023-12-11T17:15:09.311Z,1.65
2023-12-11T17:17:44.048Z,1.40
2023-12-11T17:22:47.606Z,1.65
2023-12-11T17:25:19.465Z,2.13
2023-12-11T17:27:51.636Z,1.52
2023-12-11T17:30:23.801Z,2.03
2023-12-11T17:32:55.784Z,1.85
2023-12-11T17:35:27.668Z,2.58
2023-12-11T17:37:59.922Z,1.80
2023-12-11T17:40:34.789Z,1.85
2023-12-11T17:43:09.536Z,1.65
2023-12-11T17:45:42.662Z,1.80
2023-12-11T17:48:14.708Z,2.17
2023-12-11T17:50:46.505Z,1.65
2023-12-11T17:53:18.398Z,2.25
2023-12-11T17:55:53.785Z,2.10
2023-12-11T17:58:25.677Z,1.80
2023-12-11T18:00:57.631Z,1.77
2023-12-11T18:03:29.415Z,2.05
2023-12-11T18:06:04.387Z,1.85
2023-12-11T18:08:36.458Z,1.80
2023-12-11T18:11:08.294Z,1.85
2023-12-11T18:13:41.096Z,1.58
2023-12-11T18:16:13.281Z,1.70
2023-12-11T18:18:47.289Z,2.00
2023-12-11T18:21:20.323Z,2.03
2023-12-11T18:23:55.445Z,1.63
2023-12-11T18:26:27.237Z,1.75
2023-12-11T18:29:01.872Z,1.95
2023-12-11T18:31:40.137Z,1.90
2023-12-11T18:34:12.133Z,2.22
2023-12-11T18:36:47.068Z,2.13
2023-12-11T18:39:18.831Z,2.88
2023-12-11T18:41:50.641Z,1.90
2023-12-11T18:44:22.377Z,2.05
2023-12-11T18:46:56.486Z,2.13
2023-12-11T18:49:30.002Z,3.20
2023-12-11T18:52:02.030Z,1.80
2023-12-11T18:54:37.962Z,1.83
2023-12-11T18:57:10.419Z,2.47
2023-12-11T18:59:42.264Z,2.03
2023-12-11T19:02:14.784Z,2.25
2023-12-11T19:04:46.861Z,2.20
2023-12-11T19:07:18.743Z,2.13
2023-12-11T19:09:52.918Z,2.40
2023-12-11T19:12:24.820Z,2.10
2023-12-11T19:14:56.902Z,1.90
2023-12-11T19:17:29.443Z,1.42
2023-12-11T19:20:01.585Z,2.28
2023-12-11T19:22:33.455Z,2.30
2023-12-11T19:25:05.776Z,1.90
2023-12-11T19:27:42.758Z,2.05
2023-12-11T19:33:14.825Z,2.33
2023-12-11T19:35:46.673Z,1.75
2023-12-11T19:38:19.536Z,2.15
2023-12-11T19:40:51.349Z,1.65
2023-12-11T19:43:24.981Z,1.80
2023-12-11T19:45:57.410Z,1.92
2023-12-11T19:48:30.077Z,2.40
2023-12-11T19:51:01.878Z,1.98
2023-12-11T19:53:33.673Z,1.85
2023-12-11T19:56:08.119Z,1.67
2023-12-11T19:58:39.914Z,2.03
2023-12-11T20:01:12.054Z,1.60
2023-12-11T20:03:44.245Z,1.67
2023-12-11T20:06:26.406Z,1.55
2023-12-11T20:08:58.745Z,1.63
2023-12-11T20:11:30.919Z,2.10
2023-12-11T20:14:02.734Z,1.52
2023-12-11T20:16:34.908Z,1.80
2023-12-11T20:19:07.674Z,1.80
2023-12-11T20:21:42.582Z,2.00
2023-12-11T20:24:18.521Z,1.83
2023-12-11T20:26:51.151Z,2.55
2023-12-11T20:29:23.096Z,1.80
2023-12-11T20:31:55.362Z,1.67
2023-12-11T20:34:30.177Z,2.25
2023-12-11T20:37:02.041Z,1.88
2023-12-11T20:39:33.938Z,1.80
2023-12-11T20:42:05.958Z,1.92
2023-12-11T20:44:37.841Z,2.00
2023-12-11T20:47:09.924Z,1.90
2023-12-11T20:49:41.808Z,1.85
2023-12-11T20:52:14.016Z,1.88
2023-12-11T20:54:45.923Z,1.85
2023-12-11T20:57:17.744Z,2.17
2023-12-11T20:59:49.578Z,1.95
2023-12-11T21:02:21.315Z,1.70
2023-12-11T21:04:55.387Z,1.80
2023-12-11T21:07:27.301Z,1.55
2023-12-11T21:10:00.066Z,1.92
2023-12-11T21:12:36.001Z,1.80
2023-12-11T21:15:08.026Z,1.77
2023-12-11T21:17:42.524Z,1.83
2023-12-11T21:20:14.722Z,1.70
2023-12-11T21:22:46.581Z,1.95
2023-12-11T21:25:21.285Z,1.98
2023-12-11T21:30:24.778Z,2.90
2023-12-11T21:32:57.740Z,1.80
2023-12-11T21:35:29.571Z,2.15
2023-12-11T21:38:04.583Z,2.25
2023-12-11T21:40:39.027Z,1.90
2023-12-11T21:43:11.336Z,2.15
2023-12-11T21:45:43.113Z,1.83
2023-12-11T21:48:14.975Z,1.70
2023-12-11T21:50:47.362Z,1.63
2023-12-11T21:53:19.140Z,2.08
2023-12-11T21:55:50.955Z,1.83
2023-12-11T21:58:23.054Z,1.70
2023-12-11T22:00:55.086Z,1.70
2023-12-11T22:03:27.108Z,2.00
2023-12-11T22:05:59.126Z,1.92
2023-12-11T22:08:34.082Z,2.38
2023-12-11T22:11:06.267Z,2.38
2023-12-11T22:13:38.090Z,1.80
2023-12-11T22:16:09.877Z,1.85
2023-12-11T22:18:41.851Z,1.73
2023-12-11T22:21:33.922Z,1.80
2023-12-11T22:24:06.339Z,1.50
2023-12-11T22:26:40.763Z,1.90
2023-12-11T22:29:13.600Z,1.60
2023-12-11T22:31:48.190Z,1.88
2023-12-11T22:34:20.054Z,2.22
2023-12-11T22:36:53.688Z,2.38
2023-12-11T22:39:25.497Z,1.85
2023-12-11T22:41:59.281Z,2.40
2023-12-11T22:44:34.203Z,2.10
2023-12-11T22:47:06.082Z,1.77
2023-12-11T22:49:38.704Z,1.70
2023-12-11T22:52:10.708Z,2.25
2023-12-11T22:54:42.678Z,1.65
2023-12-11T22:57:14.415Z,1.48
2023-12-11T22:59:46.249Z,1.60
2023-12-11T23:02:18.825Z,1.60
2023-12-11T23:04:50.783Z,1.83
2023-12-11T23:07:22.677Z,1.75
2023-12-11T23:09:54.487Z,1.30
2023-12-11T23:12:26.385Z,1.50
2023-12-11T23:14:58.485Z,1.77
2023-12-11T23:17:30.945Z,1.45
2023-12-11T23:20:02.928Z,1.23
2023-12-11T23:22:34.825Z,1.92
2023-12-11T23:25:07.186Z,1.55
2023-12-11T23:27:39.581Z,1.88
2023-12-11T23:30:11.526Z,1.35
2023-12-11T23:35:40.000Z,1.10
2023-12-11T23:38:11.828Z,1.40
2023-12-11T23:40:45.893Z,1.88
2023-12-11T23:43:17.704Z,1.17
2023-12-11T23:45:49.652Z,1.38
2023-12-11T23:48:21.460Z,1.10
2023-12-11T23:50:53.735Z,1.25
2023-12-11T23:53:25.550Z,1.17
2023-12-11T23:55:57.877Z,1.00
2023-12-11T23:58:34.026Z,1.85
